sensor_id;sensor_type;location;lat;lon;timestamp;temperature;humidity
11497;DHT22;5805;51.542;7.230;2023-03-01T00:00:13;3.50;99.90
11497;DHT22;5805;51.542;7.230;2023-03-01T00:02:39;2.40;99.90
11497;DHT22;5805;51.542;7.230;2023-03-01T00:05:05;2.90;99.90
11497;DHT22;5805;51.542;7.230;2023-03-01T00:07:31;2.30;99.90
11497;DHT22;5805;51.542;7.230;2023-03-01T00:09:57;2.30;99.90
11497;DHT22;5805;51.542;7.230;2023-03-01T00:12:22;3.80;99.90
11497;DHT22;5805;51.542;7.230;2023-03-01T00:14:48;3.70;99.90
11497;DHT22;5805;51.542;7.230;2023-03-01T00:17:15;2.40;99.90
11497;DHT22;5805;51.542;7.230;2023-03-01T00:19:41;2.40;99.90
11497;DHT22;5805;51.542;7.230;2023-03-01T00:22:07;2.40;99.90
11497;DHT22;5805;51.542;7.230;2023-03-01T00:24:32;2.40;99.90
11497;DHT22;5805;51.542;7.230;2023-03-01T00:26:58;3.80;99.90
11497;DHT22;5805;51.542;7.230;2023-03-01T00:29:24;2.30;99.90
11497;DHT22;5805;51.542;7.230;2023-03-01T00:31:50;3.00;99.90
11497;DHT22;5805;51.542;7.230;2023-03-01T00:34:17;2.30;99.90
11497;DHT22;5805;51.542;7.230;2023-03-01T00:36:43;2.20;99.90
11497;DHT22;5805;51.542;7.230;2023-03-01T00:39:11;2.20;99.90
11497;DHT22;5805;51.542;7.230;2023-03-01T00:41:37;2.30;99.90
11497;DHT22;5805;51.542;7.230;2023-03-01T00:44:03;2.10;99.90
11497;DHT22;5805;51.542;7.230;2023-03-01T00:46:29;2.10;99.90
11497;DHT22;5805;51.542;7.230;2023-03-01T00:48:54;3.90;99.90
11497;DHT22;5805;51.542;7.230;2023-03-01T00:51:23;2.60;99.90
11497;DHT22;5805;51.542;7.230;2023-03-01T00:53:50;2.10;99.90
11497;DHT22;5805;51.542;7.230;2023-03-01T00:56:16;2.10;99.90
11497;DHT22;5805;51.542;7.230;2023-03-01T00:58:42;2.10;99.90
11497;DHT22;5805;51.542;7.230;2023-03-01T01:01:09;2.10;99.90
11497;DHT22;5805;51.542;7.230;2023-03-01T01:03:35;2.10;99.90
11497;DHT22;5805;51.542;7.230;2023-03-01T01:06:00;2.10;99.90
11497;DHT22;5805;51.542;7.230;2023-03-01T01:08:27;2.80;99.90
11497;DHT22;5805;51.542;7.230;2023-03-01T01:10:53;2.70;99.90
11497;DHT22;5805;51.542;7.230;2023-03-01T01:13:19;2.00;99.90
11497;DHT22;5805;51.542;7.230;2023-03-01T01:15:44;2.00;99.90
11497;DHT22;5805;51.542;7.230;2023-03-01T01:18:10;3.20;99.90
11497;DHT22;5805;51.542;7.230;2023-03-01T01:20:36;1.90;99.90
11497;DHT22;5805;51.542;7.230;2023-03-01T01:23:02;2.70;99.90
11497;DHT22;5805;51.542;7.230;2023-03-01T01:25:29;2.70;99.90
11497;DHT22;5805;51.542;7.230;2023-03-01T01:27:54;1.90;99.90
11497;DHT22;5805;51.542;7.230;2023-03-01T01:30:20;3.10;99.90
11497;DHT22;5805;51.542;7.230;2023-03-01T01:32:49;1.90;99.90
11497;DHT22;5805;51.542;7.230;2023-03-01T01:35:15;1.80;99.90
11497;DHT22;5805;51.542;7.230;2023-03-01T01:37:40;1.80;99.90
11497;DHT22;5805;51.542;7.230;2023-03-01T01:40:08;1.70;99.90
11497;DHT22;5805;51.542;7.230;2023-03-01T01:42:36;1.60;99.90
11497;DHT22;5805;51.542;7.230;2023-03-01T01:45:29;1.60;99.90
11497;DHT22;5805;51.542;7.230;2023-03-01T01:47:57;1.60;99.90
11497;DHT22;5805;51.542;7.230;2023-03-01T01:50:24;1.60;99.90
11497;DHT22;5805;51.542;7.230;2023-03-01T01:52:51;1.50;99.90
11497;DHT22;5805;51.542;7.230;2023-03-01T01:55:20;1.50;99.90
11497;DHT22;5805;51.542;7.230;2023-03-01T01:57:51;1.80;99.90
11497;DHT22;5805;51.542;7.230;2023-03-01T02:00:20;1.60;99.90
11497;DHT22;5805;51.542;7.230;2023-03-01T02:02:47;1.60;99.90
11497;DHT22;5805;51.542;7.230;2023-03-01T02:05:19;1.70;99.90
11497;DHT22;5805;51.542;7.230;2023-03-01T02:07:46;1.90;99.90
11497;DHT22;5805;51.542;7.230;2023-03-01T02:10:13;1.60;99.90
11497;DHT22;5805;51.542;7.230;2023-03-01T02:12:39;1.60;99.90
11497;DHT22;5805;51.542;7.230;2023-03-01T02:15:08;1.60;99.90
11497;DHT22;5805;51.542;7.230;2023-03-01T02:17:33;1.50;99.90
11497;DHT22;5805;51.542;7.230;2023-03-01T02:20:09;1.50;99.90
11497;DHT22;5805;51.542;7.230;2023-03-01T02:22:40;1.40;99.90
11497;DHT22;5805;51.542;7.230;2023-03-01T02:25:22;1.50;99.90
11497;DHT22;5805;51.542;7.230;2023-03-01T02:27:53;1.50;99.90
11497;DHT22;5805;51.542;7.230;2023-03-01T02:30:24;1.50;99.90
11497;DHT22;5805;51.542;7.230;2023-03-01T02:32:53;3.30;99.90
11497;DHT22;5805;51.542;7.230;2023-03-01T02:35:21;4.40;99.90
11497;DHT22;5805;51.542;7.230;2023-03-01T02:37:48;1.50;99.90
11497;DHT22;5805;51.542;7.230;2023-03-01T02:40:16;1.40;99.90
11497;DHT22;5805;51.542;7.230;2023-03-01T02:42:47;1.90;99.90
11497;DHT22;5805;51.542;7.230;2023-03-01T02:45:14;1.50;99.90
11497;DHT22;5805;51.542;7.230;2023-03-01T02:47:41;1.40;99.90
11497;DHT22;5805;51.542;7.230;2023-03-01T02:50:15;1.40;99.90
11497;DHT22;5805;51.542;7.230;2023-03-01T02:52:53;1.40;99.90
11497;DHT22;5805;51.542;7.230;2023-03-01T02:55:21;1.40;99.90
11497;DHT22;5805;51.542;7.230;2023-03-01T02:57:48;1.50;99.90
11497;DHT22;5805;51.542;7.230;2023-03-01T03:00:17;2.50;99.90
11497;DHT22;5805;51.542;7.230;2023-03-01T03:02:45;1.50;99.90
11497;DHT22;5805;51.542;7.230;2023-03-01T03:05:13;1.40;99.90
11497;DHT22;5805;51.542;7.230;2023-03-01T03:07:41;2.10;99.90
11497;DHT22;5805;51.542;7.230;2023-03-01T03:10:09;1.40;99.90
11497;DHT22;5805;51.542;7.230;2023-03-01T03:12:36;1.30;99.90
11497;DHT22;5805;51.542;7.230;2023-03-01T03:15:02;1.30;99.90
11497;DHT22;5805;51.542;7.230;2023-03-01T03:17:28;1.30;99.90
11497;DHT22;5805;51.542;7.230;2023-03-01T03:19:55;1.30;99.90
11497;DHT22;5805;51.542;7.230;2023-03-01T03:22:20;1.30;99.90
11497;DHT22;5805;51.542;7.230;2023-03-01T03:24:46;1.30;99.90
11497;DHT22;5805;51.542;7.230;2023-03-01T03:27:12;1.20;99.90
11497;DHT22;5805;51.542;7.230;2023-03-01T03:29:37;1.20;99.90
11497;DHT22;5805;51.542;7.230;2023-03-01T03:32:03;1.20;99.90
11497;DHT22;5805;51.542;7.230;2023-03-01T03:34:29;1.20;99.90
11497;DHT22;5805;51.542;7.230;2023-03-01T03:36:56;1.20;99.90
11497;DHT22;5805;51.542;7.230;2023-03-01T03:39:22;1.20;99.90
11497;DHT22;5805;51.542;7.230;2023-03-01T03:41:48;1.20;99.90
11497;DHT22;5805;51.542;7.230;2023-03-01T03:44:14;2.70;99.90
11497;DHT22;5805;51.542;7.230;2023-03-01T03:46:39;1.10;99.90
11497;DHT22;5805;51.542;7.230;2023-03-01T03:49:05;1.10;99.90
11497;DHT22;5805;51.542;7.230;2023-03-01T03:51:31;1.10;99.90
11497;DHT22;5805;51.542;7.230;2023-03-01T03:53:58;1.00;99.90
11497;DHT22;5805;51.542;7.230;2023-03-01T03:56:23;1.10;99.90
11497;DHT22;5805;51.542;7.230;2023-03-01T03:58:49;1.00;99.90
11497;DHT22;5805;51.542;7.230;2023-03-01T04:01:15;1.00;99.90
11497;DHT22;5805;51.542;7.230;2023-03-01T04:03:40;0.90;99.90
11497;DHT22;5805;51.542;7.230;2023-03-01T04:06:06;0.80;99.90
11497;DHT22;5805;51.542;7.230;2023-03-01T04:08:32;0.80;99.90
11497;DHT22;5805;51.542;7.230;2023-03-01T04:11:00;1.50;99.90
11497;DHT22;5805;51.542;7.230;2023-03-01T04:13:26;0.80;99.90
11497;DHT22;5805;51.542;7.230;2023-03-01T04:15:53;0.80;99.90
11497;DHT22;5805;51.542;7.230;2023-03-01T04:18:20;0.80;99.90
11497;DHT22;5805;51.542;7.230;2023-03-01T04:20:46;0.80;99.90
11497;DHT22;5805;51.542;7.230;2023-03-01T04:23:14;1.40;99.90
11497;DHT22;5805;51.542;7.230;2023-03-01T04:25:40;0.80;99.90
11497;DHT22;5805;51.542;7.230;2023-03-01T04:28:08;0.80;99.90
11497;DHT22;5805;51.542;7.230;2023-03-01T04:30:35;0.70;99.90
11497;DHT22;5805;51.542;7.230;2023-03-01T04:33:01;0.60;99.90
11497;DHT22;5805;51.542;7.230;2023-03-01T04:35:27;0.50;99.90
11497;DHT22;5805;51.542;7.230;2023-03-01T04:37:52;1.90;99.90
11497;DHT22;5805;51.542;7.230;2023-03-01T04:40:18;0.30;99.90
11497;DHT22;5805;51.542;7.230;2023-03-01T04:42:44;0.30;99.90
11497;DHT22;5805;51.542;7.230;2023-03-01T04:45:11;0.30;99.90
11497;DHT22;5805;51.542;7.230;2023-03-01T04:47:37;0.30;99.90
11497;DHT22;5805;51.542;7.230;2023-03-01T04:50:03;0.20;99.90
11497;DHT22;5805;51.542;7.230;2023-03-01T04:52:29;0.30;99.90
11497;DHT22;5805;51.542;7.230;2023-03-01T04:54:55;0.40;99.90
11497;DHT22;5805;51.542;7.230;2023-03-01T04:57:20;0.20;99.90
11497;DHT22;5805;51.542;7.230;2023-03-01T04:59:46;0.20;99.90
11497;DHT22;5805;51.542;7.230;2023-03-01T05:02:13;0.20;99.90
11497;DHT22;5805;51.542;7.230;2023-03-01T05:04:39;1.00;99.90
11497;DHT22;5805;51.542;7.230;2023-03-01T05:07:04;0.20;99.90
11497;DHT22;5805;51.542;7.230;2023-03-01T05:09:30;0.30;99.90
11497;DHT22;5805;51.542;7.230;2023-03-01T05:11:56;0.30;99.90
11497;DHT22;5805;51.542;7.230;2023-03-01T05:14:21;0.30;99.90
11497;DHT22;5805;51.542;7.230;2023-03-01T05:16:47;0.40;99.90
11497;DHT22;5805;51.542;7.230;2023-03-01T05:19:14;0.40;99.90
11497;DHT22;5805;51.542;7.230;2023-03-01T05:21:40;2.00;99.90
11497;DHT22;5805;51.542;7.230;2023-03-01T05:24:06;0.50;99.90
11497;DHT22;5805;51.542;7.230;2023-03-01T05:26:32;0.50;99.90
11497;DHT22;5805;51.542;7.230;2023-03-01T05:28:58;0.40;99.90
11497;DHT22;5805;51.542;7.230;2023-03-01T05:31:24;0.40;99.90
11497;DHT22;5805;51.542;7.230;2023-03-01T05:33:49;1.90;99.90
11497;DHT22;5805;51.542;7.230;2023-03-01T05:36:16;0.40;99.90
11497;DHT22;5805;51.542;7.230;2023-03-01T05:38:42;1.60;99.90
11497;DHT22;5805;51.542;7.230;2023-03-01T05:41:14;0.30;99.90
11497;DHT22;5805;51.542;7.230;2023-03-01T05:43:40;1.60;99.90
11497;DHT22;5805;51.542;7.230;2023-03-01T05:46:05;0.40;99.90
11497;DHT22;5805;51.542;7.230;2023-03-01T05:48:31;0.30;99.90
11497;DHT22;5805;51.542;7.230;2023-03-01T05:50:59;0.30;99.90
11497;DHT22;5805;51.542;7.230;2023-03-01T05:53:27;0.30;99.90
11497;DHT22;5805;51.542;7.230;2023-03-01T05:55:52;0.30;99.90
11497;DHT22;5805;51.542;7.230;2023-03-01T05:58:19;0.70;99.90
11497;DHT22;5805;51.542;7.230;2023-03-01T06:00:46;0.30;99.90
11497;DHT22;5805;51.542;7.230;2023-03-01T06:03:13;0.70;99.90
11497;DHT22;5805;51.542;7.230;2023-03-01T06:05:40;0.20;99.90
11497;DHT22;5805;51.542;7.230;2023-03-01T06:08:06;0.20;99.90
11497;DHT22;5805;51.542;7.230;2023-03-01T06:10:33;0.20;99.90
11497;DHT22;5805;51.542;7.230;2023-03-01T06:12:59;0.10;99.90
11497;DHT22;5805;51.542;7.230;2023-03-01T06:15:25;0.10;99.90
11497;DHT22;5805;51.542;7.230;2023-03-01T06:17:52;0.10;99.90
11497;DHT22;5805;51.542;7.230;2023-03-01T06:20:20;0.10;99.90
11497;DHT22;5805;51.542;7.230;2023-03-01T06:22:47;1.10;99.90
11497;DHT22;5805;51.542;7.230;2023-03-01T06:25:16;0.30;99.90
11497;DHT22;5805;51.542;7.230;2023-03-01T06:27:43;0.10;99.90
11497;DHT22;5805;51.542;7.230;2023-03-01T06:30:11;0.20;99.90
11497;DHT22;5805;51.542;7.230;2023-03-01T06:32:37;0.30;99.90
11497;DHT22;5805;51.542;7.230;2023-03-01T06:35:04;0.30;99.90
11497;DHT22;5805;51.542;7.230;2023-03-01T06:37:30;0.30;99.90
11497;DHT22;5805;51.542;7.230;2023-03-01T06:39:55;0.30;99.90
11497;DHT22;5805;51.542;7.230;2023-03-01T06:42:21;2.50;99.90
11497;DHT22;5805;51.542;7.230;2023-03-01T06:44:48;0.40;99.90
11497;DHT22;5805;51.542;7.230;2023-03-01T06:47:14;0.50;99.90
11497;DHT22;5805;51.542;7.230;2023-03-01T06:49:39;0.50;99.90
11497;DHT22;5805;51.542;7.230;2023-03-01T06:52:06;0.80;99.90
11497;DHT22;5805;51.542;7.230;2023-03-01T06:54:31;0.70;99.90
11497;DHT22;5805;51.542;7.230;2023-03-01T06:56:57;0.60;99.90
11497;DHT22;5805;51.542;7.230;2023-03-01T06:59:23;0.70;99.90
11497;DHT22;5805;51.542;7.230;2023-03-01T07:01:50;0.70;99.90
11497;DHT22;5805;51.542;7.230;2023-03-01T07:04:15;0.70;99.90
11497;DHT22;5805;51.542;7.230;2023-03-01T07:06:41;1.60;99.90
11497;DHT22;5805;51.542;7.230;2023-03-01T07:09:07;0.90;99.90
11497;DHT22;5805;51.542;7.230;2023-03-01T07:11:32;1.00;99.90
11497;DHT22;5805;51.542;7.230;2023-03-01T07:13:58;1.70;99.90
11497;DHT22;5805;51.542;7.230;2023-03-01T07:16:24;1.50;99.90
11497;DHT22;5805;51.542;7.230;2023-03-01T07:18:51;3.00;99.90
11497;DHT22;5805;51.542;7.230;2023-03-01T07:21:17;1.80;99.90
11497;DHT22;5805;51.542;7.230;2023-03-01T07:23:42;1.70;99.90
11497;DHT22;5805;51.542;7.230;2023-03-01T07:26:08;1.70;99.90
11497;DHT22;5805;51.542;7.230;2023-03-01T07:28:34;2.10;99.90
11497;DHT22;5805;51.542;7.230;2023-03-01T07:31:00;1.80;99.90
11497;DHT22;5805;51.542;7.230;2023-03-01T07:33:26;1.90;99.90
11497;DHT22;5805;51.542;7.230;2023-03-01T07:35:57;1.90;99.90
11497;DHT22;5805;51.542;7.230;2023-03-01T07:38:23;2.00;99.90
11497;DHT22;5805;51.542;7.230;2023-03-01T07:40:49;2.10;99.90
11497;DHT22;5805;51.542;7.230;2023-03-01T07:43:15;2.20;99.90
11497;DHT22;5805;51.542;7.230;2023-03-01T07:45:40;2.30;99.90
11497;DHT22;5805;51.542;7.230;2023-03-01T07:48:06;2.40;99.90
11497;DHT22;5805;51.542;7.230;2023-03-01T07:50:32;2.40;99.90
11497;DHT22;5805;51.542;7.230;2023-03-01T07:52:59;2.50;99.90
11497;DHT22;5805;51.542;7.230;2023-03-01T07:55:24;2.50;99.90
11497;DHT22;5805;51.542;7.230;2023-03-01T07:57:50;2.50;99.90
11497;DHT22;5805;51.542;7.230;2023-03-01T08:00:16;2.50;99.90
11497;DHT22;5805;51.542;7.230;2023-03-01T08:02:42;2.50;99.90
11497;DHT22;5805;51.542;7.230;2023-03-01T08:05:08;2.40;99.90
11497;DHT22;5805;51.542;7.230;2023-03-01T08:07:34;2.40;99.90
11497;DHT22;5805;51.542;7.230;2023-03-01T08:10:01;2.30;99.90
11497;DHT22;5805;51.542;7.230;2023-03-01T08:12:27;2.30;99.90
11497;DHT22;5805;51.542;7.230;2023-03-01T08:14:52;2.40;99.90
11497;DHT22;5805;51.542;7.230;2023-03-01T08:17:18;2.30;99.90
11497;DHT22;5805;51.542;7.230;2023-03-01T08:19:44;2.30;99.90
11497;DHT22;5805;51.542;7.230;2023-03-01T08:22:10;2.50;99.90
11497;DHT22;5805;51.542;7.230;2023-03-01T08:24:35;2.50;99.90
11497;DHT22;5805;51.542;7.230;2023-03-01T08:27:03;2.60;99.90
11497;DHT22;5805;51.542;7.230;2023-03-01T08:29:30;2.70;99.90
11497;DHT22;5805;51.542;7.230;2023-03-01T08:31:56;2.80;99.90
11497;DHT22;5805;51.542;7.230;2023-03-01T08:34:22;3.00;99.90
11497;DHT22;5805;51.542;7.230;2023-03-01T08:36:48;2.90;99.90
11497;DHT22;5805;51.542;7.230;2023-03-01T08:39:15;3.10;99.90
11497;DHT22;5805;51.542;7.230;2023-03-01T08:41:41;3.30;99.90
11497;DHT22;5805;51.542;7.230;2023-03-01T08:44:09;3.30;99.90
11497;DHT22;5805;51.542;7.230;2023-03-01T08:46:37;3.50;99.90
11497;DHT22;5805;51.542;7.230;2023-03-01T08:49:04;3.50;99.90
11497;DHT22;5805;51.542;7.230;2023-03-01T08:51:29;3.60;99.90
11497;DHT22;5805;51.542;7.230;2023-03-01T08:53:55;3.80;99.90
11497;DHT22;5805;51.542;7.230;2023-03-01T08:56:21;3.90;99.90
11497;DHT22;5805;51.542;7.230;2023-03-01T08:58:47;4.10;99.90
11497;DHT22;5805;51.542;7.230;2023-03-01T09:01:17;4.30;99.90
11497;DHT22;5805;51.542;7.230;2023-03-01T09:03:43;4.20;97.50
11497;DHT22;5805;51.542;7.230;2023-03-01T09:06:10;4.30;98.60
11497;DHT22;5805;51.542;7.230;2023-03-01T09:08:37;4.40;97.50
11497;DHT22;5805;51.542;7.230;2023-03-01T09:11:04;4.50;96.80
11497;DHT22;5805;51.542;7.230;2023-03-01T09:13:30;4.50;96.40
11497;DHT22;5805;51.542;7.230;2023-03-01T09:15:56;4.60;97.70
11497;DHT22;5805;51.542;7.230;2023-03-01T09:18:23;4.80;97.00
11497;DHT22;5805;51.542;7.230;2023-03-01T09:20:49;4.90;94.20
11497;DHT22;5805;51.542;7.230;2023-03-01T09:23:14;5.00;94.80
11497;DHT22;5805;51.542;7.230;2023-03-01T09:25:40;5.00;93.90
11497;DHT22;5805;51.542;7.230;2023-03-01T09:28:06;5.10;93.50
11497;DHT22;5805;51.542;7.230;2023-03-01T09:30:32;5.20;94.10
11497;DHT22;5805;51.542;7.230;2023-03-01T09:32:57;5.30;93.40
11497;DHT22;5805;51.542;7.230;2023-03-01T09:35:24;5.40;92.00
11497;DHT22;5805;51.542;7.230;2023-03-01T09:37:51;5.50;91.70
11497;DHT22;5805;51.542;7.230;2023-03-01T09:40:19;5.70;90.80
11497;DHT22;5805;51.542;7.230;2023-03-01T09:42:51;5.60;90.30
11497;DHT22;5805;51.542;7.230;2023-03-01T09:45:26;5.90;91.90
11497;DHT22;5805;51.542;7.230;2023-03-01T09:47:53;6.00;89.70
11497;DHT22;5805;51.542;7.230;2023-03-01T09:50:20;6.20;90.70
11497;DHT22;5805;51.542;7.230;2023-03-01T09:52:50;6.40;90.00
11497;DHT22;5805;51.542;7.230;2023-03-01T09:55:26;6.50;81.90
11497;DHT22;5805;51.542;7.230;2023-03-01T09:57:56;6.50;84.30
11497;DHT22;5805;51.542;7.230;2023-03-01T10:00:33;6.50;85.40
11497;DHT22;5805;51.542;7.230;2023-03-01T10:03:10;6.60;82.80
11497;DHT22;5805;51.542;7.230;2023-03-01T10:05:41;6.80;82.20
11497;DHT22;5805;51.542;7.230;2023-03-01T10:08:33;6.90;80.70
11497;DHT22;5805;51.542;7.230;2023-03-01T10:11:00;7.10;75.50
11497;DHT22;5805;51.542;7.230;2023-03-01T10:13:29;7.20;75.70
11497;DHT22;5805;51.542;7.230;2023-03-01T10:16:01;7.60;73.80
11497;DHT22;5805;51.542;7.230;2023-03-01T10:18:30;7.00;71.60
11497;DHT22;5805;51.542;7.230;2023-03-01T10:20:58;7.00;70.80
11497;DHT22;5805;51.542;7.230;2023-03-01T10:23:27;7.10;72.10
11497;DHT22;5805;51.542;7.230;2023-03-01T10:26:12;7.30;71.90
11497;DHT22;5805;51.542;7.230;2023-03-01T10:28:50;7.20;67.30
11497;DHT22;5805;51.542;7.230;2023-03-01T10:31:21;7.30;68.10
11497;DHT22;5805;51.542;7.230;2023-03-01T10:33:48;7.40;68.10
11497;DHT22;5805;51.542;7.230;2023-03-01T10:36:14;7.50;67.30
11497;DHT22;5805;51.542;7.230;2023-03-01T10:38:53;7.50;66.80
11497;DHT22;5805;51.542;7.230;2023-03-01T10:41:20;7.50;66.30
11497;DHT22;5805;51.542;7.230;2023-03-01T10:43:47;7.50;66.50
11497;DHT22;5805;51.542;7.230;2023-03-01T10:46:24;7.50;66.80
11497;DHT22;5805;51.542;7.230;2023-03-01T10:49:06;7.60;66.00
11497;DHT22;5805;51.542;7.230;2023-03-01T10:51:32;7.80;66.80
11497;DHT22;5805;51.542;7.230;2023-03-01T10:54:00;7.90;65.60
11497;DHT22;5805;51.542;7.230;2023-03-01T10:56:26;7.70;62.30
11497;DHT22;5805;51.542;7.230;2023-03-01T10:59:00;7.60;63.20
11497;DHT22;5805;51.542;7.230;2023-03-01T11:01:27;7.70;64.30
11497;DHT22;5805;51.542;7.230;2023-03-01T11:04:10;7.90;64.50
11497;DHT22;5805;51.542;7.230;2023-03-01T11:06:37;8.00;64.50
11497;DHT22;5805;51.542;7.230;2023-03-01T11:09:15;8.10;63.00
11497;DHT22;5805;51.542;7.230;2023-03-01T11:11:42;7.80;61.90
11497;DHT22;5805;51.542;7.230;2023-03-01T11:14:13;7.80;64.70
11497;DHT22;5805;51.542;7.230;2023-03-01T11:16:43;7.90;64.80
11497;DHT22;5805;51.542;7.230;2023-03-01T11:19:20;7.90;64.30
11497;DHT22;5805;51.542;7.230;2023-03-01T11:21:57;8.10;64.00
11497;DHT22;5805;51.542;7.230;2023-03-01T11:24:29;8.30;63.20
11497;DHT22;5805;51.542;7.230;2023-03-01T11:26:56;8.40;61.00
11497;DHT22;5805;51.542;7.230;2023-03-01T11:29:27;8.30;61.30
11497;DHT22;5805;51.542;7.230;2023-03-01T11:31:59;8.10;59.60
11497;DHT22;5805;51.542;7.230;2023-03-01T11:34:38;8.10;59.00
11497;DHT22;5805;51.542;7.230;2023-03-01T11:37:21;8.10;58.40
11497;DHT22;5805;51.542;7.230;2023-03-01T11:39:58;8.10;59.30
11497;DHT22;5805;51.542;7.230;2023-03-01T11:42:33;8.00;59.10
11497;DHT22;5805;51.542;7.230;2023-03-01T11:45:08;8.10;60.70
11497;DHT22;5805;51.542;7.230;2023-03-01T11:50:28;8.20;58.50
11497;DHT22;5805;51.542;7.230;2023-03-01T11:53:01;8.20;59.20
11497;DHT22;5805;51.542;7.230;2023-03-01T11:55:51;8.50;59.70
11497;DHT22;5805;51.542;7.230;2023-03-01T11:58:27;8.40;58.10
11497;DHT22;5805;51.542;7.230;2023-03-01T12:01:10;8.40;58.50
11497;DHT22;5805;51.542;7.230;2023-03-01T12:04:00;8.50;58.80
11497;DHT22;5805;51.542;7.230;2023-03-01T12:06:43;8.50;57.60
11497;DHT22;5805;51.542;7.230;2023-03-01T12:09:21;8.50;58.20
11497;DHT22;5805;51.542;7.230;2023-03-01T12:12:07;8.60;57.90
11497;DHT22;5805;51.542;7.230;2023-03-01T12:14:50;8.70;57.40
11497;DHT22;5805;51.542;7.230;2023-03-01T12:17:39;8.60;57.90
11497;DHT22;5805;51.542;7.230;2023-03-01T12:20:20;8.80;57.90
11497;DHT22;5805;51.542;7.230;2023-03-01T12:23:16;8.60;56.50
11497;DHT22;5805;51.542;7.230;2023-03-01T12:25:49;8.30;56.40
11497;DHT22;5805;51.542;7.230;2023-03-01T12:28:41;8.40;57.60
11497;DHT22;5805;51.542;7.230;2023-03-01T12:31:46;8.50;58.40
11497;DHT22;5805;51.542;7.230;2023-03-01T12:34:30;8.60;57.70
11497;DHT22;5805;51.542;7.230;2023-03-01T12:37:20;8.60;57.20
11497;DHT22;5805;51.542;7.230;2023-03-01T12:39:55;8.60;56.80
11497;DHT22;5805;51.542;7.230;2023-03-01T12:42:31;8.60;57.00
11497;DHT22;5805;51.542;7.230;2023-03-01T12:45:29;8.70;57.70
11497;DHT22;5805;51.542;7.230;2023-03-01T12:50:49;8.40;58.40
11497;DHT22;5805;51.542;7.230;2023-03-01T12:53:22;8.40;58.00
11497;DHT22;5805;51.542;7.230;2023-03-01T12:55:49;8.40;58.10
11497;DHT22;5805;51.542;7.230;2023-03-01T12:58:23;8.30;57.30
11497;DHT22;5805;51.542;7.230;2023-03-01T13:01:03;8.20;57.80
11497;DHT22;5805;51.542;7.230;2023-03-01T13:03:51;8.20;57.70
11497;DHT22;5805;51.542;7.230;2023-03-01T13:06:27;8.10;58.90
11497;DHT22;5805;51.542;7.230;2023-03-01T13:08:58;8.10;58.70
11497;DHT22;5805;51.542;7.230;2023-03-01T13:11:26;8.20;59.50
11497;DHT22;5805;51.542;7.230;2023-03-01T13:13:52;8.20;58.60
11497;DHT22;5805;51.542;7.230;2023-03-01T13:16:42;8.30;58.70
11497;DHT22;5805;51.542;7.230;2023-03-01T13:19:13;8.20;58.70
11497;DHT22;5805;51.542;7.230;2023-03-01T13:21:40;8.40;59.90
11497;DHT22;5805;51.542;7.230;2023-03-01T13:24:24;8.30;58.50
11497;DHT22;5805;51.542;7.230;2023-03-01T13:27:09;8.30;58.80
11497;DHT22;5805;51.542;7.230;2023-03-01T13:29:44;8.30;58.70
11497;DHT22;5805;51.542;7.230;2023-03-01T13:32:21;8.30;57.60
11497;DHT22;5805;51.542;7.230;2023-03-01T13:34:53;8.10;57.00
11497;DHT22;5805;51.542;7.230;2023-03-01T13:37:30;8.20;58.00
11497;DHT22;5805;51.542;7.230;2023-03-01T13:39:58;8.20;57.90
11497;DHT22;5805;51.542;7.230;2023-03-01T13:42:38;8.00;57.70
11497;DHT22;5805;51.542;7.230;2023-03-01T13:45:14;8.10;59.10
11497;DHT22;5805;51.542;7.230;2023-03-01T13:47:43;8.10;59.10
11497;DHT22;5805;51.542;7.230;2023-03-01T13:50:18;8.00;59.30
11497;DHT22;5805;51.542;7.230;2023-03-01T13:52:48;7.90;59.60
11497;DHT22;5805;51.542;7.230;2023-03-01T13:55:18;7.80;59.60
11497;DHT22;5805;51.542;7.230;2023-03-01T13:57:46;7.90;60.60
11497;DHT22;5805;51.542;7.230;2023-03-01T14:00:27;7.90;59.90
11497;DHT22;5805;51.542;7.230;2023-03-01T14:03:05;8.00;59.70
11497;DHT22;5805;51.542;7.230;2023-03-01T14:05:31;7.90;59.50
11497;DHT22;5805;51.542;7.230;2023-03-01T14:07:57;7.90;58.80
11497;DHT22;5805;51.542;7.230;2023-03-01T14:10:31;7.80;59.00
11497;DHT22;5805;51.542;7.230;2023-03-01T14:13:04;7.80;59.60
11497;DHT22;5805;51.542;7.230;2023-03-01T14:15:37;7.80;59.20
11497;DHT22;5805;51.542;7.230;2023-03-01T14:18:09;7.80;59.30
11497;DHT22;5805;51.542;7.230;2023-03-01T14:20:40;7.80;59.30
11497;DHT22;5805;51.542;7.230;2023-03-01T14:23:11;7.50;59.90
11497;DHT22;5805;51.542;7.230;2023-03-01T14:25:37;7.50;61.20
11497;DHT22;5805;51.542;7.230;2023-03-01T14:28:12;7.50;61.20
11497;DHT22;5805;51.542;7.230;2023-03-01T14:30:42;7.60;61.90
11497;DHT22;5805;51.542;7.230;2023-03-01T14:33:21;7.60;61.10
11497;DHT22;5805;51.542;7.230;2023-03-01T14:35:56;7.70;61.60
11497;DHT22;5805;51.542;7.230;2023-03-01T14:38:23;7.70;61.90
11497;DHT22;5805;51.542;7.230;2023-03-01T14:40:52;7.60;61.60
11497;DHT22;5805;51.542;7.230;2023-03-01T14:43:23;7.70;62.70
11497;DHT22;5805;51.542;7.230;2023-03-01T14:45:50;7.70;62.00
11497;DHT22;5805;51.542;7.230;2023-03-01T14:48:17;7.70;61.40
11497;DHT22;5805;51.542;7.230;2023-03-01T14:50:44;7.60;62.30
11497;DHT22;5805;51.542;7.230;2023-03-01T14:53:16;7.70;63.50
11497;DHT22;5805;51.542;7.230;2023-03-01T14:55:46;7.60;62.50
11497;DHT22;5805;51.542;7.230;2023-03-01T14:58:13;7.50;63.70
11497;DHT22;5805;51.542;7.230;2023-03-01T15:00:46;7.60;63.60
11497;DHT22;5805;51.542;7.230;2023-03-01T15:03:20;7.60;63.60
11497;DHT22;5805;51.542;7.230;2023-03-01T15:05:49;7.60;62.90
11497;DHT22;5805;51.542;7.230;2023-03-01T15:08:18;7.60;61.90
11497;DHT22;5805;51.542;7.230;2023-03-01T15:10:57;7.60;61.80
11497;DHT22;5805;51.542;7.230;2023-03-01T15:13:24;7.60;62.10
11497;DHT22;5805;51.542;7.230;2023-03-01T15:15:51;7.60;60.90
11497;DHT22;5805;51.542;7.230;2023-03-01T15:18:22;7.60;61.00
11497;DHT22;5805;51.542;7.230;2023-03-01T15:20:51;7.50;61.10
11497;DHT22;5805;51.542;7.230;2023-03-01T15:23:20;7.60;61.80
11497;DHT22;5805;51.542;7.230;2023-03-01T15:25:46;7.70;61.90
11497;DHT22;5805;51.542;7.230;2023-03-01T15:28:19;7.70;62.30
11497;DHT22;5805;51.542;7.230;2023-03-01T15:30:45;7.60;61.20
11497;DHT22;5805;51.542;7.230;2023-03-01T15:33:32;7.50;61.50
11497;DHT22;5805;51.542;7.230;2023-03-01T15:35:59;7.60;61.70
11497;DHT22;5805;51.542;7.230;2023-03-01T15:38:27;7.50;61.80
11497;DHT22;5805;51.542;7.230;2023-03-01T15:40:53;7.40;62.30
11497;DHT22;5805;51.542;7.230;2023-03-01T15:43:37;7.40;61.10
11497;DHT22;5805;51.542;7.230;2023-03-01T15:46:04;7.40;61.20
11497;DHT22;5805;51.542;7.230;2023-03-01T15:48:31;7.50;61.90
11497;DHT22;5805;51.542;7.230;2023-03-01T15:50:58;7.50;61.40
11497;DHT22;5805;51.542;7.230;2023-03-01T15:53:24;7.50;61.00
11497;DHT22;5805;51.542;7.230;2023-03-01T15:55:52;7.40;60.40
11497;DHT22;5805;51.542;7.230;2023-03-01T15:58:20;7.40;60.50
11497;DHT22;5805;51.542;7.230;2023-03-01T16:00:46;7.40;60.30
11497;DHT22;5805;51.542;7.230;2023-03-01T16:03:12;7.50;60.50
11497;DHT22;5805;51.542;7.230;2023-03-01T16:05:39;7.40;59.80
11497;DHT22;5805;51.542;7.230;2023-03-01T16:08:06;7.40;59.40
11497;DHT22;5805;51.542;7.230;2023-03-01T16:10:32;7.50;60.00
11497;DHT22;5805;51.542;7.230;2023-03-01T16:12:58;7.40;60.00
11497;DHT22;5805;51.542;7.230;2023-03-01T16:15:27;7.40;60.50
11497;DHT22;5805;51.542;7.230;2023-03-01T16:17:53;7.40;61.40
11497;DHT22;5805;51.542;7.230;2023-03-01T16:20:19;7.30;62.70